createdAt,value
2022-10-19T00:04:32.243Z,65.45
2022-10-19T00:09:36.453Z,64.77
2022-10-19T00:14:40.532Z,64.63
2022-10-19T00:19:48.537Z,65.85
2022-10-19T00:24:53.642Z,64.18
2022-10-19T00:29:57.767Z,64.76
2022-10-19T00:35:03.822Z,65.08
2022-10-19T00:40:09.904Z,65.42
2022-10-19T00:45:16.948Z,64.98
2022-10-19T00:50:22.898Z,63.46
2022-10-19T00:55:27.355Z,64.15
2022-10-19T01:00:31.978Z,65.74
2022-10-19T01:05:39.707Z,67.18
2022-10-19T01:10:50.397Z,67.96
2022-10-19T01:16:01.796Z,66.80
2022-10-19T01:21:22.947Z,65.92
2022-10-19T01:26:45.460Z,65.82
2022-10-19T01:31:57.255Z,64.49
2022-10-19T01:37:08.450Z,65.95
2022-10-19T01:42:18.125Z,65.83
2022-10-19T01:47:27.250Z,65.53
2022-10-19T01:52:35.302Z,65.66
2022-10-19T01:57:44.871Z,66.42
2022-10-19T02:02:52.516Z,66.13
2022-10-19T02:08:02.611Z,64.86
2022-10-19T02:13:09.460Z,65.49
2022-10-19T02:18:19.887Z,66.08
2022-10-19T02:23:27.063Z,65.63
2022-10-19T02:28:31.705Z,65.60
2022-10-19T02:33:38.156Z,65.91
2022-10-19T02:38:43.490Z,66.26
2022-10-19T02:43:51.419Z,65.89
2022-10-19T02:48:59.335Z,66.20
2022-10-19T02:54:05.356Z,66.56
2022-10-19T02:59:09.721Z,65.55
2022-10-19T03:04:15.750Z,66.46
2022-10-19T03:09:20.381Z,66.80
2022-10-19T03:14:24.520Z,66.90
2022-10-19T03:19:31.156Z,66.25
2022-10-19T03:24:37.245Z,66.86
2022-10-19T03:29:41.749Z,67.34
2022-10-19T03:34:47.381Z,67.64
2022-10-19T03:39:51.365Z,66.62
2022-10-19T03:44:55.345Z,65.39
2022-10-19T03:50:00.806Z,65.87
2022-10-19T03:55:04.942Z,66.36
2022-10-19T04:00:10.583Z,66.55
2022-10-19T04:05:21.956Z,65.54
2022-10-19T04:10:26.023Z,66.38
2022-10-19T04:15:30.355Z,67.34
2022-10-19T04:20:36.261Z,67.92
2022-10-19T04:25:40.715Z,68.43
2022-10-19T04:30:44.716Z,69.51
2022-10-19T04:35:50.396Z,70.41
2022-10-19T04:40:55.656Z,68.98
2022-10-19T04:46:04.434Z,69.38
2022-10-19T04:51:11.540Z,68.32
2022-10-19T04:56:17.608Z,68.70
2022-10-19T05:01:23.207Z,70.06
2022-10-19T05:06:29.223Z,69.65
2022-10-19T05:11:33.186Z,68.80
2022-10-19T05:16:37.101Z,69.03
2022-10-19T05:21:44.460Z,69.47
2022-10-19T05:26:48.506Z,70.94
2022-10-19T05:31:52.794Z,71.43
2022-10-19T05:36:58.404Z,69.84
2022-10-19T05:42:02.364Z,68.71
2022-10-19T05:47:06.571Z,68.06
2022-10-19T05:52:15.347Z,66.46
2022-10-19T05:57:19.390Z,64.77
2022-10-19T06:02:24.065Z,63.13
2022-10-19T06:07:29.484Z,62.27
2022-10-19T06:12:33.534Z,61.59
2022-10-19T06:17:37.509Z,62.56
2022-10-19T06:22:43.140Z,61.39
2022-10-19T06:27:47.779Z,58.57
2022-10-19T06:32:52.578Z,56.40
2022-10-19T06:37:58.970Z,54.07
2022-10-19T06:43:03.157Z,50.61
2022-10-19T06:48:08.272Z,48.24
2022-10-19T06:53:14.138Z,45.83
2022-10-19T06:58:18.205Z,43.81
2022-10-19T07:03:22.758Z,42.23
2022-10-19T07:08:30.045Z,41.15
2022-10-19T07:13:35.057Z,39.77
2022-10-19T07:18:41.645Z,39.60
2022-10-19T07:23:49.420Z,38.93
2022-10-19T07:28:58.287Z,38.50
2022-10-19T07:34:07.464Z,36.60
2022-10-19T07:39:13.293Z,35.67
2022-10-19T07:44:17.477Z,35.39
2022-10-19T07:49:21.876Z,34.15
2022-10-19T07:54:27.792Z,34.60
2022-10-19T07:59:31.987Z,34.24
2022-10-19T08:10:04.685Z,32.80
2022-10-19T08:15:10.821Z,34.04
2022-10-19T08:20:16.617Z,31.76
2022-10-19T08:25:22.508Z,31.16
2022-10-19T08:30:29.183Z,31.52
2022-10-19T08:35:33.447Z,30.58
2022-10-19T08:40:39.564Z,29.36
2022-10-19T08:45:45.324Z,28.35
2022-10-19T08:50:50.561Z,27.78
2022-10-19T08:56:15.024Z,27.23
2022-10-19T09:01:37.584Z,27.82
2022-10-19T09:06:51.117Z,28.00
2022-10-19T09:12:08.700Z,27.89
2022-10-19T09:17:17.027Z,28.97
2022-10-19T09:22:25.515Z,28.07
2022-10-19T09:27:37.056Z,28.52
2022-10-19T09:32:41.435Z,27.97
2022-10-19T09:37:49.584Z,27.25
2022-10-19T09:42:58.631Z,26.95
2022-10-19T09:48:10.813Z,25.87
2022-10-19T09:53:21.672Z,24.89
2022-10-19T09:58:32.937Z,25.43
2022-10-19T10:03:40.538Z,24.22
2022-10-19T10:08:49.010Z,24.69
2022-10-19T10:13:56.472Z,23.76
2022-10-19T10:19:05.689Z,23.84
2022-10-19T10:24:18.752Z,22.66
2022-10-19T10:29:28.174Z,22.90
2022-10-19T10:34:46.037Z,22.66
2022-10-19T10:39:57.836Z,23.47
2022-10-19T10:45:20.529Z,23.36
2022-10-19T10:50:27.198Z,23.73
2022-10-19T10:55:32.219Z,23.70
2022-10-19T11:00:40.515Z,23.15
2022-10-19T11:05:49.217Z,22.15
2022-10-19T11:11:00.875Z,21.17
2022-10-19T11:16:15.026Z,21.62
2022-10-19T11:21:25.777Z,20.83
2022-10-19T11:26:43.046Z,19.74
2022-10-19T11:31:51.706Z,20.03
2022-10-19T11:37:07.968Z,16.12
2022-10-19T11:42:22.168Z,18.58
2022-10-19T11:47:43.272Z,17.83
2022-10-19T11:52:58.407Z,17.36
2022-10-19T11:58:16.282Z,17.65
2022-10-19T12:03:42.755Z,17.50
2022-10-19T12:09:14.682Z,17.68
2022-10-19T12:14:22.863Z,14.83
2022-10-19T12:19:36.257Z,13.87
2022-10-19T12:24:40.243Z,13.94
2022-10-19T12:29:50.062Z,15.00
2022-10-19T12:35:03.439Z,15.00
2022-10-19T12:40:20.586Z,15.10
2022-10-19T12:45:30.972Z,14.33
2022-10-19T12:51:07.175Z,14.27
2022-10-19T12:56:17.237Z,14.99
2022-10-19T13:01:24.966Z,15.94
2022-10-19T13:06:35.606Z,16.29
2022-10-19T13:12:34.946Z,16.55
2022-10-19T13:17:43.868Z,17.12
2022-10-19T13:22:51.186Z,17.83
2022-10-19T13:28:01.550Z,17.96
2022-10-19T13:33:38.930Z,17.28
2022-10-19T13:38:44.551Z,17.62
2022-10-19T13:44:20.218Z,18.29
2022-10-19T13:49:54.642Z,17.63
2022-10-19T13:55:18.312Z,18.14
2022-10-19T14:00:26.849Z,18.48
2022-10-19T14:05:57.633Z,18.93
2022-10-19T14:11:07.851Z,19.63
2022-10-19T14:16:27.021Z,19.70
2022-10-19T14:21:31.769Z,20.05
2022-10-19T14:26:36.992Z,19.67
2022-10-19T14:31:42.890Z,19.81
2022-10-19T14:36:49.588Z,19.68
2022-10-19T14:41:57.152Z,19.43
2022-10-19T14:47:17.408Z,19.08
2022-10-19T14:57:36.329Z,20.03
2022-10-19T15:02:46.271Z,20.43
2022-10-19T15:08:37.428Z,20.85
2022-10-19T15:14:11.816Z,21.11
2022-10-19T15:19:29.148Z,21.64
2022-10-19T15:24:33.172Z,22.30
2022-10-19T15:29:37.241Z,22.71
2022-10-19T15:34:45.065Z,23.57
2022-10-19T15:39:49.766Z,22.75
2022-10-19T15:44:54.730Z,23.35
2022-10-19T15:50:03.154Z,22.60
2022-10-19T15:55:08.209Z,23.81
2022-10-19T16:00:15.576Z,25.83
2022-10-19T16:05:21.865Z,27.05
2022-10-19T16:10:27.911Z,26.00
2022-10-19T16:15:32.004Z,25.60
2022-10-19T16:20:38.990Z,24.39
2022-10-19T16:25:43.706Z,23.67
2022-10-19T16:30:55.252Z,26.69
2022-10-19T16:36:05.512Z,26.44
2022-10-19T16:41:12.017Z,24.13
2022-10-19T16:46:16.350Z,25.80
2022-10-19T16:51:38.504Z,25.84
2022-10-19T16:56:45.648Z,25.97
2022-10-19T17:01:53.890Z,25.89
2022-10-19T17:07:00.253Z,26.58
2022-10-19T17:12:06.906Z,26.86
2022-10-19T17:17:12.175Z,26.68
2022-10-19T17:22:20.382Z,27.18
2022-10-19T17:27:24.553Z,26.17
2022-10-19T17:32:28.714Z,27.27
2022-10-19T17:37:34.573Z,27.23
2022-10-19T17:42:39.598Z,28.26
2022-10-19T17:47:43.616Z,28.70
2022-10-19T17:52:51.717Z,28.79
2022-10-19T17:57:56.285Z,28.63
2022-10-19T18:03:00.349Z,29.17
2022-10-19T18:08:05.919Z,29.29
2022-10-19T18:13:10.861Z,29.82
2022-10-19T18:18:14.868Z,30.33
2022-10-19T18:23:21.768Z,30.70
2022-10-19T18:28:27.391Z,30.13
2022-10-19T18:33:32.536Z,30.82
2022-10-19T18:38:38.924Z,31.83
2022-10-19T18:43:43.024Z,31.60
2022-10-19T18:48:47.970Z,32.36
2022-10-19T18:53:55.439Z,32.58
2022-10-19T18:58:59.670Z,32.65
2022-10-19T19:04:09.707Z,32.60
2022-10-19T19:09:15.910Z,32.89
2022-10-19T19:14:22.106Z,33.62
2022-10-19T19:19:27.641Z,34.02
2022-10-19T19:24:33.139Z,34.09
2022-10-19T19:29:40.145Z,34.68
2022-10-19T19:34:44.582Z,36.14
2022-10-19T19:39:51.085Z,36.72
2022-10-19T19:44:58.805Z,36.36
2022-10-19T19:50:02.817Z,37.63
2022-10-19T19:55:11.141Z,39.69
2022-10-19T20:00:16.554Z,40.84
2022-10-19T20:05:22.346Z,42.11
2022-10-19T20:10:28.231Z,43.69
2022-10-19T20:15:34.577Z,44.72
2022-10-19T20:20:38.832Z,45.27
2022-10-19T20:25:44.596Z,47.47
2022-10-19T20:30:48.657Z,47.48
2022-10-19T20:35:52.973Z,49.19
2022-10-19T20:41:01.058Z,49.78
2022-10-19T20:46:11.505Z,51.09
2022-10-19T20:51:20.745Z,53.93
2022-10-19T20:56:28.298Z,55.48
2022-10-19T21:01:35.067Z,55.52
2022-10-19T21:06:41.572Z,55.38
2022-10-19T21:11:50.229Z,55.96
2022-10-19T21:16:56.554Z,55.76
2022-10-19T21:22:03.173Z,57.26
2022-10-19T21:27:10.928Z,57.49
2022-10-19T21:32:14.908Z,57.74
2022-10-19T21:37:20.413Z,57.76
2022-10-19T21:42:29.092Z,57.86
2022-10-19T21:47:33.557Z,57.96
2022-10-19T21:52:40.230Z,58.01
2022-10-19T21:57:50.247Z,59.68
2022-10-19T22:02:55.804Z,58.68
2022-10-19T22:08:00.145Z,59.89
2022-10-19T22:13:05.570Z,60.34
2022-10-19T22:18:10.142Z,60.27
2022-10-19T22:23:14.657Z,59.67
2022-10-19T22:28:20.343Z,59.56
2022-10-19T22:33:25.278Z,59.97
2022-10-19T22:38:30.213Z,60.21
2022-10-19T22:43:35.600Z,59.81
2022-10-19T22:48:39.629Z,59.26
2022-10-19T22:53:43.984Z,58.41
2022-10-19T22:58:49.506Z,57.71
2022-10-19T23:03:53.500Z,57.71
2022-10-19T23:08:57.531Z,58.52
2022-10-19T23:14:02.923Z,59.56
2022-10-19T23:19:06.938Z,59.61
2022-10-19T23:24:11.097Z,59.60
2022-10-19T23:29:16.497Z,60.23
2022-10-19T23:34:20.621Z,60.98
2022-10-19T23:39:24.852Z,60.98
2022-10-19T23:44:30.334Z,60.85
2022-10-19T23:49:34.723Z,60.89
2022-10-19T23:54:38.818Z,60.63
2022-10-19T23:59:44.228Z,60.62
